Station: Mount Ive

  Atmospheric Gas Attenuation - ITU Rec 676-11   --------------- db/100km ---------------
Date Time Temp RH % AH g/m3 Dew Point Wind Direction Speed kph Gust kph Barometer mB Rainfall Since 9am 24GHz 47GHz 76GHz 122GHz 134GHz 241GHz
27 09:00 14 47 5.67 2.8 6 1026.9 0 13.4 21.8 29.1 75.7 62.4 212.1
26 09:00 10 62 5.83 3.1 0 1025.1 0 13.8 23.0 31.1 81.1 67.5 229.6
23 09:00 13 66 7.49 6.8 4 1013.1 0 17.3 24.3 35.8 93.7 84.9 291.1
20 09:00 18 80 12.29 14.6 44 1006.6 1 27.3 30.5 52.4 138.1 141.6 490.1
19 09:00 14 89 10.74 12.2 0 1014.8 40 24.2 29.5 48.7 128.2 127.6 440.6
18 09:00 25 28 6.45 5.5 11 1014.8 0 14.6 20.0 27.6 71.9 62.0 212.1
16 09:00 20 25 4.32 -0.4 6 1019.7 0 10.3 18.5 22.5 58.2 43.2 145.4
15 09:00 12 76 8.1 7.9 0 1029.9 0 18.6 26.2 39.4 103.2 95.3 327.3
14 09:00 12 76 8.1 7.9 6 1031.5 0 18.6 26.3 39.5 103.3 95.5 327.7
13 09:00 13 77 8.73 9.1 9 1027.2 0.2 19.9 26.9 41.4 108.4 102.3 352.0
12 09:00 21 41 7.51 7.5 0 1021.2 0 17.0 22.6 32.8 85.8 77.5 266.1
10 09:00 19 54 8.8 9.6 0 1021.6 0 19.8 25.0 38.4 100.7 95.2 327.9
08 09:00 16 69 9.4 10.4 6 1025.4 0 21.2 27.0 42.4 111.3 107.1 369.2
07 09:00 20 25 4.32 -0.4 56 1018.6 0 10.3 18.4 22.5 58.1 43.2 145.2
06 09:00 23 51 10.48 12.5 6 1021.5 0 23.1 26.5 42.8 112.4 110.9 383.4
05 09:00 12 65 6.93 5.6 0 1023.1 0 16.1 24.1 34.5 90.0 79.5 271.8
04 09:00 13 66 7.49 6.8 0 1022 0 17.3 24.7 36.2 94.6 85.5 293.2
03 09:00 15 21 2.69 -6.8 4 1018.1 0 7.1 17.3 18.6 47.7 28.5 93.1
02 09:00 17 51 7.38 7 4 1011.8 0 16.9 23.1 33.6 87.9 79.3 271.9
01 09:00 13 55 6.24 4.3 33 1019.6 0 14.6 22.7 31.3 81.6 69.7 237.6
30 09:00 14 78 9.41 10.2 7 1023.3 0 21.3 27.5 43.5 114.1 109.9 378.5
29 09:00 16 50 6.81 5.7 9 1025 0 15.7 23.0 32.4 84.6 74.2 253.9
23 09:00 7 85 6.59 4.7 0 1024.9 0.1 15.6 25.0 35.4 92.4 80.2 273.8
22 09:00 9 73 6.44 4.5 4 1022.5 5 15.2 24.1 33.8 88.2 76.1 259.5
21 09:00 15.5 45 5.95 3.6 7 1015.6 1 13.9 21.5 29.2 76.0 63.9 217.6
20 09:00 10 93 8.74 9 4 1015.2 4 20.1 27.3 42.4 111.5 105.5 362.8
19 09:00 19.5 20 3.36 -3.6 9 1007.5 4 8.3 17.0 19.3 49.9 33.3 110.5
18 09:00 11 81 8.11 7.9 0 1006.6 0 18.7 25.7 38.9 102.1 94.8 325.7
17 09:00 12.5 60 6.6 4.9 7 1008.4 0 15.4 22.9 32.4 84.7 73.8 252.4
14 09:00 12 94 10.02 11 0 1013.7 0.6 22.7 28.9 46.7 122.9 120.5 415.5
12 09:00 13 77 8.73 9.1 9 1009.4 18 19.9 26.2 40.6 106.5 100.8 347.0
10 09:00 9 87 7.67 6.9 24 1020.3 0.2 17.8 26.0 38.7 101.3 92.4 316.7
09 09:00 10 87 8.18 7.9 9 1020.2 0.5 18.9 26.6 40.3 105.7 98.1 337.0
08 09:00 8 86 7.11 5.8 9 1014.8 4 16.7 25.2 36.6 95.9 85.5 292.5
06 09:00 8 86 7.11 5.8 4 1016.7 4 16.7 25.3 36.7 96.0 85.6 292.9
05 09:00 9 87 7.67 6.9 33 1018.2 0 17.8 26.0 38.6 101.1 92.2 316.1
03 09:00 10 74 6.96 5.7 4 1020.4 0 16.2 24.6 35.3 92.4 81.7 279.5
02 09:00 15 30 3.85 -2.3 2 1023.4 0 9.5 19.0 22.5 57.9 40.9 136.7
01 09:00 18 13 2 -10.4 4 1024.7 0.1 5.6 16.1 16.1 41.0 21.0 66.6
31 09:00 14 57 6.88 5.6 33 1028.2 0 15.9 23.7 33.6 87.8 77.2 264.1
30 09:00 8 86 7.11 5.8 4 1030.4 0.2 16.7 25.8 37.3 97.4 86.6 296.3
29 09:00 8 86 7.11 5.8 0 1024.2 0.1 16.7 25.5 37.0 96.8 86.2 294.8
28 09:00 5 84 5.71 2.6 0 1024.1 0.1 13.8 24.1 32.6 85.0 70.3 238.6
27 09:00 1013.1
26 09:00 7 78 6.05 3.5 0 1026 0.2 14.4 24.1 33.2 86.6 73.1 248.7
25 09:00 10 93 8.74 9 0 1023.2 3 20.1 27.7 42.8 112.3 106.2 365.1
24 09:00 11.5 47 4.86 0.7 17 1021.2 0 11.7 21.0 26.9 69.7 54.3 183.4
23 09:00 1 64 3.33 -5 0 1027.3 0 8.8 21.4 24.7 63.9 42.2 139.4
22 09:00 2 100 5.56 2 0 1031.4 0 13.6 24.9 33.5 87.3 71.4 242.1
21 09:00 10 74 6.96 5.7 9 1032.4 0 16.2 25.0 35.8 93.6 82.6 282.3
20 09:00 9 80 7.06 5.7 4 1029.1 0.4 16.5 25.4 36.6 95.5 84.8 289.9
19 09:00 10.5 87 8.44 8.5 9 1020.3 0 19.4 26.9 41.1 107.9 101.1 347.4
18 09:00 12.5 39 4.29 -1.1 33 1015.1 0 10.5 19.8 24.4 63.1 46.8 157.2
17 09:00 10 68 6.39 4.4 0 1022.6 0 15.0 23.8 33.2 86.6 74.5 254.0
16 09:00 6 84 6.1 3.6 0 1026.1 0 14.6 24.5 33.8 88.3 74.7 254.3
10 09:00 13 25 2.84 -6.3 4 1022.3 0 7.4 18.0 19.7 50.4 30.9 101.3
09 09:00 8 46 3.8 -2.8 4 1025 0 9.6 20.4 24.3 62.8 44.1 147.0
08 09:00 4 67 4.26 -1.5 0 1028.2 0 10.7 22.2 27.4 70.9 52.3 175.3
07 09:00 2.5 91 5.24 1.2 0 1032.2 0 12.8 24.3 32.0 83.2 66.6 225.3
06 09:00 8 93 7.69 6.9 9 1033.5 0 17.9 26.9 39.9 104.3 94.9 325.2
05 09:00 8 93 7.69 6.9 9 1033.3 0 17.9 26.9 39.9 104.2 94.9 325.2
04 09:00 5 100 6.8 5 9 1034.1 0.4 16.1 26.3 37.6 98.1 86.0 293.4
03 09:00 9 100 8.82 9 17 1028.6 0.5 20.3 28.3 44.0 115.3 109.2 375.5
02 09:00 9.5 80 7.28 6.3 17 1021.3 0 17.0 25.3 36.9 96.5 86.6 296.5
01 09:00 9 48 4.23 -1.3 4 1014 0 10.5 20.4 25.2 65.2 48.1 161.5
30 09:00 9 48 4.23 -1.3 17 1017.3 0 10.5 20.6 25.3 65.5 48.3 161.9
29 09:00 8 46 3.8 -2.8 9 1024.4 0 9.6 20.4 24.3 62.7 44.1 146.9
28 09:00 7 57 4.42 -0.8 0 1028.9 0 10.9 21.7 27.0 70.0 52.4 176.0
27 09:00 7 57 4.42 -0.8 0 1028 0 10.9 21.7 27.0 69.9 52.3 175.8
26 09:00 10 74 6.96 5.7 0 1028.1 0 16.2 24.9 35.7 93.1 82.3 281.3
25 09:00 10 100 9.4 10 0 1024.9 0 21.5 28.9 45.8 120.2 115.8 398.6
24 09:00 9 73 6.44 4.5 2 1022.9 0 15.2 24.1 33.8 88.3 76.1 259.6
23 09:00 9 87 7.67 6.9 0 1024.2 0.3 17.8 26.2 38.9 101.7 92.7 317.7
22 09:00 11 1023.1
20 09:00 14 62 7.48 6.8 24 1020.8 0 17.2 24.3 35.6 93.2 84.2 288.8
19 09:00 14 42 5.07 1.3 9 1020 0 12.1 20.7 26.8 69.5 55.0 186.2
18 09:00 13.5 51 5.97 3.6 44 1028.5 0 14.0 22.4 30.5 79.3 66.5 226.4
17 09:00 13 77 8.73 9.1 2 1032.4 0 19.9 27.1 41.6 109.0 102.8 353.5
16 09:00 10.5 81 7.86 7.4 0 1028.9 0 18.1 26.2 39.1 102.4 93.8 321.9
15 09:00 11 58 5.81 3 4 1026.6 0 13.8 22.8 30.7 80.0 66.5 226.1
14 09:00 10 74 6.96 5.7 17 1023.4 0.4 16.2 24.7 35.5 92.7 81.9 280.2
13 09:00 14 57 6.88 5.6 4 1010 1 15.9 23.0 32.9 86.1 76.0 260.0
12 09:00 12 32 3.41 -3.9 4 1019.9 0 8.6 18.9 21.7 55.9 37.4 124.1
10 09:00 4 26 1.65 -13.9 4 1027.6 0 5.1 18.3 17.9 45.6 21.0 64.9
09 09:00 4 52 3.31 -5 0 1030.6 0 8.7 20.8 23.9 61.5 40.6 133.9
08 09:00 9 48 4.23 -1.3 0 1031.6 0 10.5 21.1 25.8 66.6 48.9 164.0
07 09:00 11 52 5.21 1.6 4 1028.2 0 12.5 21.9 28.6 74.2 59.2 200.5
06 09:00 7 71 5.5 2.2 0 1027.2 13.2 23.3 31.1 80.9 66.0 223.7
05 09:00 6 70 5.08 1 0 1031.2 0 12.4 23.1 30.0 77.9 61.6 208.1
04 09:00 5 84 5.71 2.6 0 1033.5 0.1 13.8 24.4 33.0 85.8 70.9 240.5
03 09:00 11 87 8.71 9 0 1033.5 0.4 19.9 27.7 42.6 111.7 105.3 362.0
02 09:00 10 87 8.18 7.9 4 1028.7 0 18.9 26.9 40.7 106.6 98.8 339.3
01 09:00 10 62 5.83 3.1 4 1022.1 0.2 13.8 22.9 31.0 80.8 67.3 229.0
31 09:00 10 87 8.18 7.9 0 1018.7 2 18.9 26.5 40.2 105.5 98.0 336.6
30 09:00 15 58 7.44 6.9 24 1016.9 0 17.1 23.9 34.9 91.3 82.4 282.6
29 09:00 14.5 52 6.47 4.9 4 1026.3 0.1 15.0 22.9 31.8 83.0 71.6 244.3
28 09:00 9.5 93 8.47 8.5 0 1025.7 0.6 19.5 27.5 42.1 110.2 103.3 354.9
27 09:00 14 57 6.88 5.6 4 1021.9 0 15.9 23.5 33.4 87.2 76.8 262.7
26 09:00 12 43 4.58 -0.1 24 1020.3 0 11.1 20.5 25.7 66.6 50.7 170.7
25 09:00 11 52 5.21 1.6 4 1024.7 0 12.5 21.8 28.4 73.9 59.0 199.9

Last Refresh: 27-Sep-2020 12:22:15

Most of the information presented on this site is sourced from the Bureau of Meteorology.  Copyright in all material sourced from the Bureau of Meteorology resides with the Commonwealth of Australia.